Aviation Digital Data Service (ADDS)

Output produced by METARs form (1749 UTC 25 February 2018)
found at http://aviationweather.gov/adds/metars/
 
KHDC 251735Z AUTO 10006KT 10SM SCT039 BKN050 OVC095 19/16 A3008 RMK AO2